sensor_id;sensor_type;location;lat;lon;timestamp;P1;durP1;ratioP1;P2;durP2;ratioP2
22812;SDS011;11573;51.334;3.244;2023-07-31T00:00:11;35.80;;;10.77;;
22812;SDS011;11573;51.334;3.244;2023-07-31T00:02:38;32.42;;;10.60;;
22812;SDS011;11573;51.334;3.244;2023-07-31T00:05:08;31.00;;;12.05;;
22812;SDS011;11573;51.334;3.244;2023-07-31T00:07:35;37.70;;;11.82;;
22812;SDS011;11573;51.334;3.244;2023-07-31T00:10:02;36.72;;;11.10;;
22812;SDS011;11573;51.334;3.244;2023-07-31T00:12:29;38.03;;;12.52;;
22812;SDS011;11573;51.334;3.244;2023-07-31T00:14:56;37.13;;;10.95;;
22812;SDS011;11573;51.334;3.244;2023-07-31T00:17:23;37.28;;;11.80;;
22812;SDS011;11573;51.334;3.244;2023-07-31T00:19:50;43.08;;;11.63;;
22812;SDS011;11573;51.334;3.244;2023-07-31T00:22:17;28.13;;;10.90;;
22812;SDS011;11573;51.334;3.244;2023-07-31T00:24:44;37.40;;;11.63;;
22812;SDS011;11573;51.334;3.244;2023-07-31T00:27:11;38.80;;;12.05;;
22812;SDS011;11573;51.334;3.244;2023-07-31T00:29:38;41.00;;;12.60;;
22812;SDS011;11573;51.334;3.244;2023-07-31T00:32:05;36.67;;;10.88;;
22812;SDS011;11573;51.334;3.244;2023-07-31T00:34:33;31.48;;;11.00;;
22812;SDS011;11573;51.334;3.244;2023-07-31T00:37:01;29.80;;;10.65;;
22812;SDS011;11573;51.334;3.244;2023-07-31T00:39:29;39.78;;;12.48;;
22812;SDS011;11573;51.334;3.244;2023-07-31T00:41:58;34.55;;;11.05;;
22812;SDS011;11573;51.334;3.244;2023-07-31T00:44:25;30.48;;;9.52;;
22812;SDS011;11573;51.334;3.244;2023-07-31T00:46:52;36.03;;;11.23;;
22812;SDS011;11573;51.334;3.244;2023-07-31T00:49:21;33.35;;;11.57;;
22812;SDS011;11573;51.334;3.244;2023-07-31T00:51:48;34.85;;;10.68;;
22812;SDS011;11573;51.334;3.244;2023-07-31T00:54:17;37.00;;;10.80;;
22812;SDS011;11573;51.334;3.244;2023-07-31T00:56:45;30.98;;;10.48;;
22812;SDS011;11573;51.334;3.244;2023-07-31T00:59:15;34.08;;;10.65;;
22812;SDS011;11573;51.334;3.244;2023-07-31T01:01:41;29.90;;;10.30;;
22812;SDS011;11573;51.334;3.244;2023-07-31T01:04:08;32.83;;;10.88;;
22812;SDS011;11573;51.334;3.244;2023-07-31T01:12:09;34.63;;;10.10;;
22812;SDS011;11573;51.334;3.244;2023-07-31T01:14:40;33.38;;;10.43;;
22812;SDS011;11573;51.334;3.244;2023-07-31T01:17:16;32.05;;;10.65;;
22812;SDS011;11573;51.334;3.244;2023-07-31T01:19:44;26.02;;;10.05;;
22812;SDS011;11573;51.334;3.244;2023-07-31T01:25:24;30.48;;;10.27;;
22812;SDS011;11573;51.334;3.244;2023-07-31T01:28:08;34.42;;;10.40;;
22812;SDS011;11573;51.334;3.244;2023-07-31T01:30:43;27.02;;;9.73;;
22812;SDS011;11573;51.334;3.244;2023-07-31T01:33:17;37.10;;;10.60;;
22812;SDS011;11573;51.334;3.244;2023-07-31T01:35:45;35.10;;;10.10;;
22812;SDS011;11573;51.334;3.244;2023-07-31T01:38:14;32.05;;;9.20;;
22812;SDS011;11573;51.334;3.244;2023-07-31T01:40:41;32.05;;;9.48;;
22812;SDS011;11573;51.334;3.244;2023-07-31T01:43:09;29.08;;;9.43;;
22812;SDS011;11573;51.334;3.244;2023-07-31T01:45:36;38.30;;;10.75;;
22812;SDS011;11573;51.334;3.244;2023-07-31T01:48:03;32.03;;;9.98;;
22812;SDS011;11573;51.334;3.244;2023-07-31T01:50:30;27.50;;;10.35;;
22812;SDS011;11573;51.334;3.244;2023-07-31T01:52:57;32.15;;;8.80;;
22812;SDS011;11573;51.334;3.244;2023-07-31T01:55:24;25.52;;;8.80;;
22812;SDS011;11573;51.334;3.244;2023-07-31T01:57:51;31.63;;;9.15;;
22812;SDS011;11573;51.334;3.244;2023-07-31T02:00:18;31.25;;;8.88;;
22812;SDS011;11573;51.334;3.244;2023-07-31T02:02:45;24.17;;;9.52;;
22812;SDS011;11573;51.334;3.244;2023-07-31T02:05:13;32.17;;;9.30;;
22812;SDS011;11573;51.334;3.244;2023-07-31T02:07:40;31.90;;;9.38;;
22812;SDS011;11573;51.334;3.244;2023-07-31T02:10:07;25.50;;;9.30;;
22812;SDS011;11573;51.334;3.244;2023-07-31T02:12:34;30.15;;;8.90;;
22812;SDS011;11573;51.334;3.244;2023-07-31T02:15:01;25.80;;;9.05;;
22812;SDS011;11573;51.334;3.244;2023-07-31T02:17:28;28.02;;;8.57;;
22812;SDS011;11573;51.334;3.244;2023-07-31T02:19:56;27.60;;;9.35;;
22812;SDS011;11573;51.334;3.244;2023-07-31T02:22:23;22.20;;;8.90;;
22812;SDS011;11573;51.334;3.244;2023-07-31T02:24:50;24.90;;;9.48;;
22812;SDS011;11573;51.334;3.244;2023-07-31T02:27:17;31.13;;;8.32;;
22812;SDS011;11573;51.334;3.244;2023-07-31T02:29:44;27.25;;;8.75;;
22812;SDS011;11573;51.334;3.244;2023-07-31T02:32:12;34.90;;;9.80;;
22812;SDS011;11573;51.334;3.244;2023-07-31T02:34:39;28.30;;;9.20;;
22812;SDS011;11573;51.334;3.244;2023-07-31T02:37:06;27.00;;;8.02;;
22812;SDS011;11573;51.334;3.244;2023-07-31T02:39:33;31.92;;;9.60;;
22812;SDS011;11573;51.334;3.244;2023-07-31T02:42:00;21.92;;;8.25;;
22812;SDS011;11573;51.334;3.244;2023-07-31T02:44:28;29.75;;;9.68;;
22812;SDS011;11573;51.334;3.244;2023-07-31T02:46:55;30.17;;;9.38;;
22812;SDS011;11573;51.334;3.244;2023-07-31T02:49:22;26.17;;;9.07;;
22812;SDS011;11573;51.334;3.244;2023-07-31T02:51:49;24.42;;;8.13;;
22812;SDS011;11573;51.334;3.244;2023-07-31T02:54:16;30.65;;;8.43;;
22812;SDS011;11573;51.334;3.244;2023-07-31T02:56:43;28.35;;;8.50;;
22812;SDS011;11573;51.334;3.244;2023-07-31T02:59:10;19.95;;;8.45;;
22812;SDS011;11573;51.334;3.244;2023-07-31T03:01:36;29.33;;;8.63;;
22812;SDS011;11573;51.334;3.244;2023-07-31T03:04:04;26.52;;;8.68;;
22812;SDS011;11573;51.334;3.244;2023-07-31T03:06:32;21.02;;;7.38;;
22812;SDS011;11573;51.334;3.244;2023-07-31T03:08:59;31.70;;;9.02;;
22812;SDS011;11573;51.334;3.244;2023-07-31T03:11:27;22.80;;;8.43;;
22812;SDS011;11573;51.334;3.244;2023-07-31T03:13:55;21.95;;;8.48;;
22812;SDS011;11573;51.334;3.244;2023-07-31T03:16:22;29.63;;;9.02;;
22812;SDS011;11573;51.334;3.244;2023-07-31T03:18:49;26.38;;;8.65;;
22812;SDS011;11573;51.334;3.244;2023-07-31T03:21:16;25.17;;;8.27;;
22812;SDS011;11573;51.334;3.244;2023-07-31T03:23:43;22.02;;;8.10;;
22812;SDS011;11573;51.334;3.244;2023-07-31T03:26:10;23.17;;;8.73;;
22812;SDS011;11573;51.334;3.244;2023-07-31T03:28:37;24.65;;;9.45;;
22812;SDS011;11573;51.334;3.244;2023-07-31T03:31:04;21.60;;;9.43;;
22812;SDS011;11573;51.334;3.244;2023-07-31T03:33:31;26.92;;;8.55;;
22812;SDS011;11573;51.334;3.244;2023-07-31T03:35:58;21.10;;;8.20;;
22812;SDS011;11573;51.334;3.244;2023-07-31T03:38:26;22.65;;;8.38;;
22812;SDS011;11573;51.334;3.244;2023-07-31T03:40:53;18.42;;;8.15;;
22812;SDS011;11573;51.334;3.244;2023-07-31T03:43:20;27.38;;;8.85;;
22812;SDS011;11573;51.334;3.244;2023-07-31T03:45:47;24.08;;;8.02;;
22812;SDS011;11573;51.334;3.244;2023-07-31T03:48:14;16.85;;;8.13;;
22812;SDS011;11573;51.334;3.244;2023-07-31T03:50:42;25.00;;;7.63;;
22812;SDS011;11573;51.334;3.244;2023-07-31T03:53:09;21.05;;;8.65;;
22812;SDS011;11573;51.334;3.244;2023-07-31T03:55:36;18.52;;;8.38;;
22812;SDS011;11573;51.334;3.244;2023-07-31T03:58:02;21.15;;;9.18;;
22812;SDS011;11573;51.334;3.244;2023-07-31T04:00:29;16.65;;;7.35;;
22812;SDS011;11573;51.334;3.244;2023-07-31T04:02:56;20.00;;;7.90;;
22812;SDS011;11573;51.334;3.244;2023-07-31T04:05:23;22.75;;;7.93;;
22812;SDS011;11573;51.334;3.244;2023-07-31T04:07:51;21.60;;;7.88;;
22812;SDS011;11573;51.334;3.244;2023-07-31T04:10:18;19.80;;;8.27;;
22812;SDS011;11573;51.334;3.244;2023-07-31T04:12:45;22.27;;;8.38;;
22812;SDS011;11573;51.334;3.244;2023-07-31T04:15:11;18.75;;;8.15;;
22812;SDS011;11573;51.334;3.244;2023-07-31T04:17:38;22.73;;;8.23;;
22812;SDS011;11573;51.334;3.244;2023-07-31T04:20:06;23.42;;;8.30;;
22812;SDS011;11573;51.334;3.244;2023-07-31T04:22:33;25.63;;;8.55;;
22812;SDS011;11573;51.334;3.244;2023-07-31T04:25:00;21.63;;;8.30;;
22812;SDS011;11573;51.334;3.244;2023-07-31T04:27:27;25.75;;;8.40;;
22812;SDS011;11573;51.334;3.244;2023-07-31T04:29:54;20.60;;;7.88;;
22812;SDS011;11573;51.334;3.244;2023-07-31T04:32:20;21.98;;;8.38;;
22812;SDS011;11573;51.334;3.244;2023-07-31T04:34:47;20.60;;;8.40;;
22812;SDS011;11573;51.334;3.244;2023-07-31T04:37:14;25.92;;;8.70;;
22812;SDS011;11573;51.334;3.244;2023-07-31T04:39:41;20.98;;;8.40;;
22812;SDS011;11573;51.334;3.244;2023-07-31T04:42:08;22.35;;;7.78;;
22812;SDS011;11573;51.334;3.244;2023-07-31T04:44:35;18.75;;;8.15;;
22812;SDS011;11573;51.334;3.244;2023-07-31T04:47:02;24.88;;;8.23;;
22812;SDS011;11573;51.334;3.244;2023-07-31T04:49:29;23.42;;;8.40;;
22812;SDS011;11573;51.334;3.244;2023-07-31T04:51:57;25.45;;;8.38;;
22812;SDS011;11573;51.334;3.244;2023-07-31T04:54:24;22.55;;;8.30;;
22812;SDS011;11573;51.334;3.244;2023-07-31T04:56:53;21.88;;;7.55;;
22812;SDS011;11573;51.334;3.244;2023-07-31T04:59:20;29.00;;;8.07;;
22812;SDS011;11573;51.334;3.244;2023-07-31T05:01:47;23.10;;;7.55;;
22812;SDS011;11573;51.334;3.244;2023-07-31T05:04:14;22.08;;;8.00;;
22812;SDS011;11573;51.334;3.244;2023-07-31T05:06:42;23.02;;;8.15;;
22812;SDS011;11573;51.334;3.244;2023-07-31T05:09:09;24.85;;;7.55;;
22812;SDS011;11573;51.334;3.244;2023-07-31T05:11:36;26.23;;;9.35;;
22812;SDS011;11573;51.334;3.244;2023-07-31T05:14:03;19.60;;;8.07;;
22812;SDS011;11573;51.334;3.244;2023-07-31T05:16:30;25.02;;;8.32;;
22812;SDS011;11573;51.334;3.244;2023-07-31T05:18:57;19.13;;;8.57;;
22812;SDS011;11573;51.334;3.244;2023-07-31T05:21:24;24.55;;;7.70;;
22812;SDS011;11573;51.334;3.244;2023-07-31T05:23:51;21.15;;;7.57;;
22812;SDS011;11573;51.334;3.244;2023-07-31T05:26:18;22.85;;;7.85;;
22812;SDS011;11573;51.334;3.244;2023-07-31T05:28:45;24.17;;;8.02;;
22812;SDS011;11573;51.334;3.244;2023-07-31T05:31:12;22.50;;;8.20;;
22812;SDS011;11573;51.334;3.244;2023-07-31T05:33:39;19.48;;;7.97;;
22812;SDS011;11573;51.334;3.244;2023-07-31T05:36:06;29.20;;;7.90;;
22812;SDS011;11573;51.334;3.244;2023-07-31T05:38:33;18.50;;;7.10;;
22812;SDS011;11573;51.334;3.244;2023-07-31T05:41:00;20.73;;;8.00;;
22812;SDS011;11573;51.334;3.244;2023-07-31T05:43:27;19.13;;;7.47;;
22812;SDS011;11573;51.334;3.244;2023-07-31T05:45:54;14.00;;;6.97;;
22812;SDS011;11573;51.334;3.244;2023-07-31T05:48:21;20.65;;;7.38;;
22812;SDS011;11573;51.334;3.244;2023-07-31T05:50:48;18.95;;;7.32;;
22812;SDS011;11573;51.334;3.244;2023-07-31T05:53:15;20.40;;;7.38;;
22812;SDS011;11573;51.334;3.244;2023-07-31T05:55:42;20.20;;;6.93;;
22812;SDS011;11573;51.334;3.244;2023-07-31T05:58:09;16.10;;;7.78;;
22812;SDS011;11573;51.334;3.244;2023-07-31T06:00:36;22.20;;;8.13;;
22812;SDS011;11573;51.334;3.244;2023-07-31T06:03:03;18.55;;;7.70;;
22812;SDS011;11573;51.334;3.244;2023-07-31T06:05:30;17.90;;;7.45;;
22812;SDS011;11573;51.334;3.244;2023-07-31T06:07:58;23.85;;;7.80;;
22812;SDS011;11573;51.334;3.244;2023-07-31T06:10:25;20.88;;;7.82;;
22812;SDS011;11573;51.334;3.244;2023-07-31T06:12:52;23.58;;;8.30;;
22812;SDS011;11573;51.334;3.244;2023-07-31T06:15:19;18.60;;;7.65;;
22812;SDS011;11573;51.334;3.244;2023-07-31T06:17:46;24.40;;;7.55;;
22812;SDS011;11573;51.334;3.244;2023-07-31T06:20:13;21.02;;;7.05;;
22812;SDS011;11573;51.334;3.244;2023-07-31T06:22:40;15.25;;;6.40;;
22812;SDS011;11573;51.334;3.244;2023-07-31T06:25:07;20.92;;;7.10;;
22812;SDS011;11573;51.334;3.244;2023-07-31T06:27:36;19.55;;;7.72;;
22812;SDS011;11573;51.334;3.244;2023-07-31T06:30:03;26.13;;;8.00;;
22812;SDS011;11573;51.334;3.244;2023-07-31T06:32:31;16.50;;;6.72;;
22812;SDS011;11573;51.334;3.244;2023-07-31T06:34:58;21.80;;;7.97;;
22812;SDS011;11573;51.334;3.244;2023-07-31T06:37:25;20.98;;;7.20;;
22812;SDS011;11573;51.334;3.244;2023-07-31T06:39:52;20.67;;;7.13;;
22812;SDS011;11573;51.334;3.244;2023-07-31T06:42:19;16.52;;;6.72;;
22812;SDS011;11573;51.334;3.244;2023-07-31T06:44:47;18.00;;;7.72;;
22812;SDS011;11573;51.334;3.244;2023-07-31T06:47:14;18.83;;;6.10;;
22812;SDS011;11573;51.334;3.244;2023-07-31T06:49:41;16.08;;;6.72;;
22812;SDS011;11573;51.334;3.244;2023-07-31T06:52:08;17.98;;;6.55;;
22812;SDS011;11573;51.334;3.244;2023-07-31T06:54:36;12.25;;;5.40;;
22812;SDS011;11573;51.334;3.244;2023-07-31T06:57:03;12.80;;;5.15;;
22812;SDS011;11573;51.334;3.244;2023-07-31T06:59:30;14.90;;;5.32;;
22812;SDS011;11573;51.334;3.244;2023-07-31T07:01:57;13.55;;;6.50;;
22812;SDS011;11573;51.334;3.244;2023-07-31T07:04:24;13.65;;;5.70;;
22812;SDS011;11573;51.334;3.244;2023-07-31T07:06:51;11.38;;;5.22;;
22812;SDS011;11573;51.334;3.244;2023-07-31T07:09:18;10.63;;;4.78;;
22812;SDS011;11573;51.334;3.244;2023-07-31T07:11:46;12.13;;;5.30;;
22812;SDS011;11573;51.334;3.244;2023-07-31T07:14:13;8.57;;;4.70;;
22812;SDS011;11573;51.334;3.244;2023-07-31T07:16:40;10.57;;;4.82;;
22812;SDS011;11573;51.334;3.244;2023-07-31T07:19:08;8.30;;;4.60;;
22812;SDS011;11573;51.334;3.244;2023-07-31T07:21:35;9.45;;;5.13;;
22812;SDS011;11573;51.334;3.244;2023-07-31T07:24:02;9.75;;;4.50;;
22812;SDS011;11573;51.334;3.244;2023-07-31T07:26:29;10.07;;;4.47;;
22812;SDS011;11573;51.334;3.244;2023-07-31T07:28:56;5.90;;;4.07;;
22812;SDS011;11573;51.334;3.244;2023-07-31T07:31:26;8.98;;;3.63;;
22812;SDS011;11573;51.334;3.244;2023-07-31T07:33:54;6.50;;;3.30;;
22812;SDS011;11573;51.334;3.244;2023-07-31T07:36:22;5.75;;;3.47;;
22812;SDS011;11573;51.334;3.244;2023-07-31T07:38:48;4.70;;;2.72;;
22812;SDS011;11573;51.334;3.244;2023-07-31T07:41:16;6.70;;;3.00;;
22812;SDS011;11573;51.334;3.244;2023-07-31T07:43:42;4.82;;;3.38;;
22812;SDS011;11573;51.334;3.244;2023-07-31T07:46:09;4.85;;;2.75;;
22812;SDS011;11573;51.334;3.244;2023-07-31T07:48:36;6.15;;;2.83;;
22812;SDS011;11573;51.334;3.244;2023-07-31T07:51:03;6.07;;;2.75;;
22812;SDS011;11573;51.334;3.244;2023-07-31T07:53:30;3.13;;;2.13;;
22812;SDS011;11573;51.334;3.244;2023-07-31T07:55:57;3.60;;;2.20;;
22812;SDS011;11573;51.334;3.244;2023-07-31T07:58:24;4.35;;;2.38;;
22812;SDS011;11573;51.334;3.244;2023-07-31T08:00:51;5.18;;;2.15;;
22812;SDS011;11573;51.334;3.244;2023-07-31T08:03:18;5.55;;;2.50;;
22812;SDS011;11573;51.334;3.244;2023-07-31T08:05:46;4.20;;;2.40;;
22812;SDS011;11573;51.334;3.244;2023-07-31T08:08:16;3.00;;;2.08;;
22812;SDS011;11573;51.334;3.244;2023-07-31T08:10:43;3.53;;;2.10;;
22812;SDS011;11573;51.334;3.244;2023-07-31T08:13:11;4.15;;;1.98;;
22812;SDS011;11573;51.334;3.244;2023-07-31T08:15:40;3.45;;;2.08;;
22812;SDS011;11573;51.334;3.244;2023-07-31T08:18:08;3.63;;;2.10;;
22812;SDS011;11573;51.334;3.244;2023-07-31T08:20:36;2.50;;;1.90;;
22812;SDS011;11573;51.334;3.244;2023-07-31T08:23:03;3.42;;;2.10;;
22812;SDS011;11573;51.334;3.244;2023-07-31T08:25:30;3.50;;;2.33;;
22812;SDS011;11573;51.334;3.244;2023-07-31T08:27:57;3.15;;;2.20;;
22812;SDS011;11573;51.334;3.244;2023-07-31T08:30:24;3.60;;;2.42;;
22812;SDS011;11573;51.334;3.244;2023-07-31T08:32:51;3.85;;;2.30;;
22812;SDS011;11573;51.334;3.244;2023-07-31T08:35:18;5.85;;;2.67;;
22812;SDS011;11573;51.334;3.244;2023-07-31T08:37:45;5.45;;;3.05;;
22812;SDS011;11573;51.334;3.244;2023-07-31T08:40:12;4.90;;;2.92;;
22812;SDS011;11573;51.334;3.244;2023-07-31T08:42:43;4.07;;;2.85;;
22812;SDS011;11573;51.334;3.244;2023-07-31T08:45:15;5.65;;;3.10;;
22812;SDS011;11573;51.334;3.244;2023-07-31T08:47:47;5.63;;;2.92;;
22812;SDS011;11573;51.334;3.244;2023-07-31T08:50:17;7.00;;;2.83;;
22812;SDS011;11573;51.334;3.244;2023-07-31T08:52:45;6.28;;;2.63;;
22812;SDS011;11573;51.334;3.244;2023-07-31T08:55:13;5.25;;;2.97;;
22812;SDS011;11573;51.334;3.244;2023-07-31T08:57:41;5.13;;;2.78;;
22812;SDS011;11573;51.334;3.244;2023-07-31T09:00:09;5.68;;;2.72;;
22812;SDS011;11573;51.334;3.244;2023-07-31T09:02:38;6.82;;;2.60;;
22812;SDS011;11573;51.334;3.244;2023-07-31T09:05:14;5.68;;;2.65;;
22812;SDS011;11573;51.334;3.244;2023-07-31T09:07:42;6.15;;;2.63;;
22812;SDS011;11573;51.334;3.244;2023-07-31T09:10:13;4.15;;;2.60;;
22812;SDS011;11573;51.334;3.244;2023-07-31T09:12:40;5.68;;;2.70;;
22812;SDS011;11573;51.334;3.244;2023-07-31T09:15:07;4.97;;;1.95;;
22812;SDS011;11573;51.334;3.244;2023-07-31T09:17:46;4.43;;;2.30;;
22812;SDS011;11573;51.334;3.244;2023-07-31T09:20:17;4.93;;;2.67;;
22812;SDS011;11573;51.334;3.244;2023-07-31T09:22:45;4.25;;;2.10;;
22812;SDS011;11573;51.334;3.244;2023-07-31T09:25:20;6.18;;;2.17;;
22812;SDS011;11573;51.334;3.244;2023-07-31T09:30:21;2.88;;;2.03;;
22812;SDS011;11573;51.334;3.244;2023-07-31T09:32:48;4.82;;;2.03;;
22812;SDS011;11573;51.334;3.244;2023-07-31T09:35:27;2.65;;;1.95;;
22812;SDS011;11573;51.334;3.244;2023-07-31T09:37:59;4.13;;;1.92;;
22812;SDS011;11573;51.334;3.244;2023-07-31T09:40:35;3.20;;;1.60;;
22812;SDS011;11573;51.334;3.244;2023-07-31T09:43:04;2.35;;;1.80;;
22812;SDS011;11573;51.334;3.244;2023-07-31T09:45:43;2.83;;;1.60;;
22812;SDS011;11573;51.334;3.244;2023-07-31T09:48:11;3.15;;;1.70;;
22812;SDS011;11573;51.334;3.244;2023-07-31T09:50:47;2.83;;;1.98;;
22812;SDS011;11573;51.334;3.244;2023-07-31T09:53:15;4.63;;;2.10;;
22812;SDS011;11573;51.334;3.244;2023-07-31T09:55:43;4.50;;;2.17;;
22812;SDS011;11573;51.334;3.244;2023-07-31T09:58:11;2.58;;;2.00;;
22812;SDS011;11573;51.334;3.244;2023-07-31T10:00:39;6.18;;;2.10;;
22812;SDS011;11573;51.334;3.244;2023-07-31T10:03:07;2.72;;;1.70;;
22812;SDS011;11573;51.334;3.244;2023-07-31T10:08:13;2.72;;;1.90;;
22812;SDS011;11573;51.334;3.244;2023-07-31T10:10:42;3.28;;;1.90;;
22812;SDS011;11573;51.334;3.244;2023-07-31T10:13:11;3.47;;;2.08;;
22812;SDS011;11573;51.334;3.244;2023-07-31T10:15:39;2.53;;;2.13;;
22812;SDS011;11573;51.334;3.244;2023-07-31T10:18:08;5.60;;;2.45;;
22812;SDS011;11573;51.334;3.244;2023-07-31T10:20:35;4.20;;;2.40;;
22812;SDS011;11573;51.334;3.244;2023-07-31T10:23:03;4.78;;;2.63;;
22812;SDS011;11573;51.334;3.244;2023-07-31T10:25:30;5.03;;;2.65;;
22812;SDS011;11573;51.334;3.244;2023-07-31T10:27:59;3.15;;;2.45;;
22812;SDS011;11573;51.334;3.244;2023-07-31T10:30:27;3.72;;;2.33;;
22812;SDS011;11573;51.334;3.244;2023-07-31T10:32:56;6.15;;;2.97;;
22812;SDS011;11573;51.334;3.244;2023-07-31T10:35:24;3.13;;;2.80;;
22812;SDS011;11573;51.334;3.244;2023-07-31T10:37:51;3.95;;;2.78;;
22812;SDS011;11573;51.334;3.244;2023-07-31T10:40:19;2.95;;;2.35;;
22812;SDS011;11573;51.334;3.244;2023-07-31T10:42:54;8.63;;;2.80;;
22812;SDS011;11573;51.334;3.244;2023-07-31T10:48:12;6.20;;;2.28;;
22812;SDS011;11573;51.334;3.244;2023-07-31T10:50:47;4.53;;;2.03;;
22812;SDS011;11573;51.334;3.244;2023-07-31T10:53:26;4.07;;;2.00;;
22812;SDS011;11573;51.334;3.244;2023-07-31T10:55:58;5.07;;;2.00;;
22812;SDS011;11573;51.334;3.244;2023-07-31T10:58:25;4.68;;;2.35;;
22812;SDS011;11573;51.334;3.244;2023-07-31T11:00:56;3.90;;;1.75;;
22812;SDS011;11573;51.334;3.244;2023-07-31T11:03:26;8.77;;;3.10;;
22812;SDS011;11573;51.334;3.244;2023-07-31T11:06:07;4.28;;;2.75;;
22812;SDS011;11573;51.334;3.244;2023-07-31T11:08:35;4.45;;;2.40;;
22812;SDS011;11573;51.334;3.244;2023-07-31T11:11:08;4.88;;;2.65;;
22812;SDS011;11573;51.334;3.244;2023-07-31T11:13:44;3.83;;;2.40;;
22812;SDS011;11573;51.334;3.244;2023-07-31T11:16:16;7.18;;;3.30;;
22812;SDS011;11573;51.334;3.244;2023-07-31T11:18:44;7.65;;;3.10;;
22812;SDS011;11573;51.334;3.244;2023-07-31T11:21:17;4.82;;;2.67;;
22812;SDS011;11573;51.334;3.244;2023-07-31T11:23:50;4.53;;;3.22;;
22812;SDS011;11573;51.334;3.244;2023-07-31T11:26:27;4.88;;;2.80;;
22812;SDS011;11573;51.334;3.244;2023-07-31T11:28:54;4.75;;;2.40;;
22812;SDS011;11573;51.334;3.244;2023-07-31T11:31:21;5.03;;;2.42;;
22812;SDS011;11573;51.334;3.244;2023-07-31T11:33:49;5.35;;;2.60;;
22812;SDS011;11573;51.334;3.244;2023-07-31T11:36:17;4.78;;;2.22;;
22812;SDS011;11573;51.334;3.244;2023-07-31T11:38:47;3.30;;;1.83;;
22812;SDS011;11573;51.334;3.244;2023-07-31T11:41:15;3.33;;;2.05;;
22812;SDS011;11573;51.334;3.244;2023-07-31T11:43:44;3.58;;;2.53;;
22812;SDS011;11573;51.334;3.244;2023-07-31T11:46:14;3.03;;;2.08;;
22812;SDS011;11573;51.334;3.244;2023-07-31T11:48:42;2.08;;;1.80;;
22812;SDS011;11573;51.334;3.244;2023-07-31T11:51:10;3.67;;;1.80;;
22812;SDS011;11573;51.334;3.244;2023-07-31T11:56:09;2.95;;;2.10;;
22812;SDS011;11573;51.334;3.244;2023-07-31T11:58:39;2.67;;;2.22;;
22812;SDS011;11573;51.334;3.244;2023-07-31T12:01:07;4.63;;;2.42;;
22812;SDS011;11573;51.334;3.244;2023-07-31T12:03:35;3.63;;;2.58;;
22812;SDS011;11573;51.334;3.244;2023-07-31T12:06:03;4.10;;;2.50;;
22812;SDS011;11573;51.334;3.244;2023-07-31T12:08:30;2.33;;;2.10;;
22812;SDS011;11573;51.334;3.244;2023-07-31T12:11:01;4.72;;;2.92;;
22812;SDS011;11573;51.334;3.244;2023-07-31T12:13:30;5.05;;;2.92;;
22812;SDS011;11573;51.334;3.244;2023-07-31T12:16:02;3.00;;;2.70;;
22812;SDS011;11573;51.334;3.244;2023-07-31T12:18:33;5.13;;;2.63;;
22812;SDS011;11573;51.334;3.244;2023-07-31T12:21:04;5.28;;;2.80;;
22812;SDS011;11573;51.334;3.244;2023-07-31T12:23:32;4.30;;;3.15;;
22812;SDS011;11573;51.334;3.244;2023-07-31T12:28:42;6.60;;;3.20;;
22812;SDS011;11573;51.334;3.244;2023-07-31T12:31:10;6.25;;;3.60;;
22812;SDS011;11573;51.334;3.244;2023-07-31T12:33:39;4.05;;;3.17;;
22812;SDS011;11573;51.334;3.244;2023-07-31T12:36:10;8.30;;;2.95;;
22812;SDS011;11573;51.334;3.244;2023-07-31T12:38:38;5.68;;;3.17;;
22812;SDS011;11573;51.334;3.244;2023-07-31T12:41:05;5.78;;;3.22;;
22812;SDS011;11573;51.334;3.244;2023-07-31T12:43:34;4.45;;;3.00;;
22812;SDS011;11573;51.334;3.244;2023-07-31T12:46:01;4.35;;;2.45;;
22812;SDS011;11573;51.334;3.244;2023-07-31T12:48:29;2.97;;;2.63;;
22812;SDS011;11573;51.334;3.244;2023-07-31T12:50:56;3.20;;;2.30;;
22812;SDS011;11573;51.334;3.244;2023-07-31T12:53:23;3.65;;;2.53;;
22812;SDS011;11573;51.334;3.244;2023-07-31T12:55:50;7.47;;;2.65;;
22812;SDS011;11573;51.334;3.244;2023-07-31T12:58:17;3.45;;;2.55;;
22812;SDS011;11573;51.334;3.244;2023-07-31T13:00:44;3.85;;;2.25;;
22812;SDS011;11573;51.334;3.244;2023-07-31T13:03:11;3.97;;;2.25;;
22812;SDS011;11573;51.334;3.244;2023-07-31T13:05:38;4.85;;;2.83;;
22812;SDS011;11573;51.334;3.244;2023-07-31T13:08:05;4.32;;;2.53;;
22812;SDS011;11573;51.334;3.244;2023-07-31T13:10:32;4.10;;;1.85;;
22812;SDS011;11573;51.334;3.244;2023-07-31T13:12:59;2.80;;;1.92;;
22812;SDS011;11573;51.334;3.244;2023-07-31T13:15:26;2.58;;;2.00;;
22812;SDS011;11573;51.334;3.244;2023-07-31T13:17:53;3.25;;;2.00;;
22812;SDS011;11573;51.334;3.244;2023-07-31T13:20:20;2.00;;;1.80;;
22812;SDS011;11573;51.334;3.244;2023-07-31T13:22:47;3.22;;;2.08;;
22812;SDS011;11573;51.334;3.244;2023-07-31T13:25:14;2.72;;;2.00;;
22812;SDS011;11573;51.334;3.244;2023-07-31T13:27:41;2.08;;;1.92;;
22812;SDS011;11573;51.334;3.244;2023-07-31T13:30:08;3.35;;;1.90;;
22812;SDS011;11573;51.334;3.244;2023-07-31T13:32:35;2.45;;;1.75;;
22812;SDS011;11573;51.334;3.244;2023-07-31T13:35:08;2.25;;;1.63;;
22812;SDS011;11573;51.334;3.244;2023-07-31T13:37:38;1.67;;;1.58;;
22812;SDS011;11573;51.334;3.244;2023-07-31T13:40:05;2.05;;;1.70;;
22812;SDS011;11573;51.334;3.244;2023-07-31T13:42:32;2.65;;;1.83;;
22812;SDS011;11573;51.334;3.244;2023-07-31T13:44:59;2.00;;;1.80;;
22812;SDS011;11573;51.334;3.244;2023-07-31T13:47:28;2.50;;;1.60;;
22812;SDS011;11573;51.334;3.244;2023-07-31T13:49:55;2.42;;;1.75;;
22812;SDS011;11573;51.334;3.244;2023-07-31T13:52:22;1.90;;;1.80;;
22812;SDS011;11573;51.334;3.244;2023-07-31T13:54:49;1.75;;;1.65;;
22812;SDS011;11573;51.334;3.244;2023-07-31T13:57:16;3.35;;;2.10;;
22812;SDS011;11573;51.334;3.244;2023-07-31T13:59:43;2.60;;;2.10;;
22812;SDS011;11573;51.334;3.244;2023-07-31T14:02:10;3.45;;;2.45;;
22812;SDS011;11573;51.334;3.244;2023-07-31T14:04:37;2.05;;;1.85;;
22812;SDS011;11573;51.334;3.244;2023-07-31T14:07:04;2.88;;;2.05;;
22812;SDS011;11573;51.334;3.244;2023-07-31T14:09:31;2.30;;;1.98;;
22812;SDS011;11573;51.334;3.244;2023-07-31T14:11:58;3.83;;;2.00;;
22812;SDS011;11573;51.334;3.244;2023-07-31T14:14:25;2.78;;;2.00;;
22812;SDS011;11573;51.334;3.244;2023-07-31T14:16:52;3.35;;;2.00;;
22812;SDS011;11573;51.334;3.244;2023-07-31T14:19:19;3.22;;;1.55;;
22812;SDS011;11573;51.334;3.244;2023-07-31T14:21:47;1.75;;;1.40;;
22812;SDS011;11573;51.334;3.244;2023-07-31T14:24:30;2.10;;;1.52;;
22812;SDS011;11573;51.334;3.244;2023-07-31T14:26:58;2.08;;;1.30;;
22812;SDS011;11573;51.334;3.244;2023-07-31T14:29:25;1.65;;;1.55;;
22812;SDS011;11573;51.334;3.244;2023-07-31T14:31:52;1.10;;;1.00;;
22812;SDS011;11573;51.334;3.244;2023-07-31T14:34:19;1.17;;;1.00;;
22812;SDS011;11573;51.334;3.244;2023-07-31T14:36:46;0.80;;;0.80;;
22812;SDS011;11573;51.334;3.244;2023-07-31T14:39:13;1.83;;;1.00;;
22812;SDS011;11573;51.334;3.244;2023-07-31T14:41:40;1.10;;;0.98;;
22812;SDS011;11573;51.334;3.244;2023-07-31T14:44:07;2.17;;;1.02;;
22812;SDS011;11573;51.334;3.244;2023-07-31T14:46:34;0.88;;;0.70;;
22812;SDS011;11573;51.334;3.244;2023-07-31T14:49:01;0.75;;;0.73;;
22812;SDS011;11573;51.334;3.244;2023-07-31T14:51:28;0.60;;;0.60;;
22812;SDS011;11573;51.334;3.244;2023-07-31T14:53:55;2.72;;;0.80;;
22812;SDS011;11573;51.334;3.244;2023-07-31T14:56:22;1.40;;;0.73;;
22812;SDS011;11573;51.334;3.244;2023-07-31T14:58:50;0.88;;;0.88;;
22812;SDS011;11573;51.334;3.244;2023-07-31T15:01:17;0.88;;;0.88;;
22812;SDS011;11573;51.334;3.244;2023-07-31T15:03:44;1.58;;;0.82;;
22812;SDS011;11573;51.334;3.244;2023-07-31T15:06:11;0.85;;;0.85;;